Canton, GA

9:33 AM EST on November 21, 2019 (GMT -0500)
Canton

Weather History for KCNI - October, 2019

Change the Weather History Date:

Friday, October 18, 2019

  Actual Average (WUND) Record (WUND)
Temperature  
Mean Temperature 52 °F -  
Max Temperature 68 °F - - (-1)
Min Temperature 35 °F - - (-1)
Degree Days  
Heating Degree Days 14    
Growing Degree Days 2 (Base 50)    
Moisture  
Dew Point 39 °F    
Average Humidity 63    
Maximum Humidity 100    
Minimum Humidity 30    
Precipitation  
Precipitation 0.00 in - - ()
Sea Level Pressure  
Sea Level Pressure 30.01 in    
Wind  
Wind Speed 2 mph (East)    
Max Wind Speed 8 mph    
Max Gust Speed -    
Visibility 10 miles    
Events      
Averages and records for this station are not official NWS values.
T = Trace of Precipitation, MM = Missing Value Source: NWS Daily Summary

Daily Weather History Graph

Daily Weather History Graph

Search for Another Location

Airport or City:

Astronomy

Oct. 18, 2019 Rise Set
Actual Time 7:45 AM EDT 6:59 PM EDT
Civil Twilight 7:19 AM EDT 7:25 PM EDT
Nautical Twilight 6:50 AM EDT 7:54 PM EDT
Astronomical Twilight 6:21 AM EDT 8:23 PM EDT
Moon 10:25 PM EDT (10/18) 12:07 PM EDT (10/18)
Length of Visible Light 12h 05m
Length of Day
11h 14m
Waning Gibbous, 79% of the Moon is Illuminated
Oct 18
Waning Gibbous
Oct 21
Last Quarter
Oct 27
New
Nov 4
First Quarter
Nov 12
Full

Hourly Weather History & Observations

Time (EDT) Temp. Windchill Dew Point Humidity Pressure Visibility Wind Dir Wind Speed Gust Speed Precip Events Conditions
12:10 AM 50.0 °F - 35.6 °F 58% 29.98 in 10.0 mi Calm Calm - N/A   Clear
12:30 AM 50.0 °F - 35.6 °F 58% 29.98 in 10.0 mi Calm Calm - N/A   Clear
12:50 AM 46.4 °F - 37.4 °F 71% 29.98 in 10.0 mi Calm Calm - N/A   Clear
1:10 AM 44.6 °F - 37.4 °F 76% 29.99 in 10.0 mi Calm Calm - N/A   Clear
1:30 AM 44.6 °F - 39.2 °F 81% 29.99 in 10.0 mi Calm Calm - N/A   Clear
1:50 AM 44.6 °F - 41.0 °F 87% 29.99 in 10.0 mi Calm Calm - N/A   Clear
2:10 AM 41.0 °F - 37.4 °F 87% 29.99 in 10.0 mi Calm Calm - N/A   Clear
2:30 AM 41.0 °F 38.0 °F 39.2 °F 93% 29.99 in 10.0 mi NW 4.6 mph - N/A   Clear
2:50 AM 41.0 °F 39.0 °F 39.2 °F 93% 29.99 in 10.0 mi NW 3.5 mph - N/A   Clear
3:10 AM 44.6 °F - 37.4 °F 76% 29.99 in 10.0 mi Calm Calm - N/A   Clear
3:30 AM 44.6 °F - 37.4 °F 76% 29.99 in 10.0 mi Calm Calm - N/A   Clear
3:50 AM 41.0 °F - 37.4 °F 87% 29.99 in 10.0 mi Calm Calm - N/A   Clear
4:10 AM 41.0 °F - 37.4 °F 87% 29.99 in 10.0 mi Calm Calm - N/A   Clear
4:30 AM 42.8 °F - 37.4 °F 81% 29.98 in 10.0 mi Calm Calm - N/A   Clear
4:50 AM 41.0 °F - 37.4 °F 87% 29.99 in 10.0 mi Calm Calm - N/A   Clear
5:30 AM 39.2 °F - 37.4 °F 93% 30.00 in 10.0 mi Calm Calm - N/A   Clear
5:50 AM 37.4 °F - 37.4 °F 100% 30.00 in 10.0 mi Calm Calm - N/A   Clear
6:10 AM 39.2 °F - 37.4 °F 93% 30.01 in 10.0 mi Calm Calm - N/A   Clear
6:30 AM 37.4 °F - 37.4 °F 100% 30.00 in 10.0 mi Calm Calm - N/A   Clear
6:50 AM 39.2 °F - 39.2 °F 100% 30.01 in 10.0 mi Calm Calm - N/A   Clear
7:10 AM 37.4 °F - 37.4 °F 100% 30.01 in 10.0 mi Calm Calm - N/A   Clear
7:30 AM 37.4 °F - 35.6 °F 93% 30.01 in 10.0 mi Calm Calm - N/A   Clear
7:50 AM 35.6 °F - 33.8 °F 93% 30.02 in 10.0 mi Calm Calm - N/A   Clear
8:30 AM 41.0 °F - 41.0 °F 100% 30.04 in 10.0 mi Calm Calm - N/A   Clear
8:50 AM 41.0 °F - 39.2 °F 93% 30.05 in 10.0 mi Calm Calm - N/A   Clear
9:10 AM 44.6 °F - 37.4 °F 76% 30.06 in 10.0 mi Calm Calm - N/A   Clear
9:30 AM 48.2 °F - 39.2 °F 71% 30.06 in 10.0 mi ENE 3.5 mph - N/A   Clear
10:10 AM 53.6 °F - 37.4 °F 54% 30.07 in 10.0 mi East 5.8 mph - N/A   Clear
10:30 AM 55.4 °F - 37.4 °F 51% 30.07 in 10.0 mi East 8.1 mph - N/A   Clear
10:50 AM 59.0 °F - 37.4 °F 45% 30.07 in 10.0 mi ENE 5.8 mph - N/A   Clear
11:10 AM 59.0 °F - 37.4 °F 45% 30.07 in 10.0 mi ENE 5.8 mph - N/A   Clear
11:30 AM 59.0 °F - 37.4 °F 45% 30.07 in 10.0 mi East 6.9 mph - N/A   Clear
11:50 AM 60.8 °F - 39.2 °F 45% 30.06 in 10.0 mi ENE 4.6 mph - N/A   Clear
12:10 PM 62.6 °F - 39.2 °F 42% 30.06 in 10.0 mi ENE 3.5 mph - N/A   Clear
12:30 PM 62.6 °F - 37.4 °F 39% 30.06 in 10.0 mi East 5.8 mph - N/A   Clear
12:50 PM 64.4 °F - 37.4 °F 37% 30.06 in 10.0 mi ENE 5.8 mph - N/A   Clear
1:10 PM 64.4 °F - 37.4 °F 37% 30.06 in 10.0 mi ESE 6.9 mph - N/A   Clear
1:30 PM 64.4 °F - 35.6 °F 34% 30.04 in 10.0 mi SE 6.9 mph - N/A   Clear
1:50 PM 66.2 °F - 35.6 °F 32% 30.03 in 10.0 mi East 5.8 mph - N/A   Clear
2:10 PM 66.2 °F - 35.6 °F 32% 30.02 in 10.0 mi East 6.9 mph - N/A   Clear
2:30 PM 66.2 °F - 35.6 °F 32% 30.01 in 10.0 mi ENE 4.6 mph - N/A   Clear
2:50 PM 64.4 °F - 37.4 °F 37% 30.01 in 10.0 mi ENE 3.5 mph - N/A   Clear
3:10 PM 66.2 °F - 37.4 °F 35% 30.00 in 10.0 mi ENE 6.9 mph - N/A   Clear
3:30 PM 68.0 °F - 35.6 °F 30% 30.00 in 10.0 mi ESE 4.6 mph - N/A   Clear
3:50 PM 68.0 °F - 35.6 °F 30% 30.01 in 10.0 mi East 3.5 mph - N/A   Clear
4:10 PM 66.2 °F - 37.4 °F 35% 30.01 in 10.0 mi East 5.8 mph - N/A   Clear
4:30 PM 66.2 °F - 37.4 °F 35% 30.00 in 10.0 mi East 3.5 mph - N/A   Clear
4:50 PM 64.4 °F - 37.4 °F 37% 30.00 in 10.0 mi ESE 4.6 mph - N/A   Clear
5:10 PM 64.4 °F - 39.2 °F 40% 30.00 in 10.0 mi East 3.5 mph - N/A   Clear
5:30 PM 64.4 °F - 41.0 °F 42% 30.01 in 10.0 mi Calm Calm - N/A   Clear
5:50 PM 64.4 °F - 42.8 °F 45% 30.00 in 10.0 mi Calm Calm - N/A   Clear
6:10 PM 62.6 °F - 42.8 °F 48% 30.00 in 10.0 mi Calm Calm - N/A   Clear
6:30 PM 62.6 °F - 42.8 °F 48% 30.00 in 10.0 mi Calm Calm - N/A   Clear
6:50 PM 60.8 °F - 44.6 °F 55% 29.99 in 10.0 mi Calm Calm - N/A   Clear
7:10 PM 60.8 °F - 44.6 °F 55% 29.99 in 10.0 mi Calm Calm - N/A   Clear
7:50 PM 59.0 °F - 44.6 °F 59% 30.00 in 10.0 mi Calm Calm - N/A   Clear
8:10 PM 59.0 °F - 44.6 °F 59% 30.00 in 10.0 mi Calm Calm - N/A   Clear
8:30 PM 57.2 °F - 46.4 °F 67% 29.99 in 10.0 mi Calm Calm - N/A   Clear
8:50 PM 57.2 °F - 44.6 °F 63% 29.99 in 10.0 mi ENE 3.5 mph - N/A   Clear
9:30 PM 57.2 °F - 44.6 °F 63% 29.98 in 10.0 mi ENE 3.5 mph - N/A   Clear
9:50 PM 57.2 °F - 44.6 °F 63% 29.98 in 10.0 mi Calm Calm - N/A   Clear
10:10 PM 55.4 °F - 44.6 °F 67% 29.98 in 10.0 mi ENE 4.6 mph - N/A   Clear
10:30 PM 55.4 °F - 44.6 °F 67% 29.99 in 10.0 mi East 3.5 mph - N/A   Clear
10:50 PM 55.4 °F - 44.6 °F 67% 30.00 in 10.0 mi East 4.6 mph - N/A   Clear
11:10 PM 55.4 °F - 44.6 °F 67% 30.00 in 10.0 mi East 3.5 mph - N/A   Clear
11:30 PM 53.6 °F - 44.6 °F 72% 30.01 in 10.0 mi East 4.6 mph - N/A   Clear
11:50 PM 53.6 °F - 44.6 °F 72% 30.01 in 10.0 mi ENE 3.5 mph - N/A   Clear